Time;durP1;ratioP1;P1;durP2;ratioP2;P2;SDS_P1;SDS_P2;PMS_P1;PMS_P2;Temp;Humidity;BMP_temperature;BMP_pressure;BME280_temperature;BME280_humidity;BME280_pressure;Samples;Min_cycle;Max_cycle;Signal;HPM_P1;HPM_P2
2022/12/12 00:01:45;;;;;;;49.43;23.50;;;;;;;-0.41;97.09;99762.78;5091713;28;20566;-60
2022/12/12 00:04:12;;;;;;;47.85;23.92;;;;;;;-0.39;97.19;99764.38;5099890;28;20522;-59
2022/12/12 00:06:38;;;;;;;46.93;24.37;;;;;;;-0.44;96.99;99766.41;5093142;28;20783;-59
2022/12/12 00:09:08;;;;;;;57.00;24.67;;;;;;;-0.33;96.88;99757.97;5086447;28;20950;-60
2022/12/12 00:11:35;;;;;;;53.53;25.83;;;;;;;-0.35;96.82;99767.69;5080992;28;20503;-58
2022/12/12 00:14:02;;;;;;;46.90;24.60;;;;;;;-0.37;96.34;99764.28;5088670;28;21147;-59
2022/12/12 00:16:28;;;;;;;52.77;25.97;;;;;;;-0.39;96.33;99760.91;5094094;28;20952;-59
2022/12/12 00:18:55;;;;;;;50.33;24.73;;;;;;;-0.35;96.07;99765.06;5086692;28;20490;-59
2022/12/12 00:21:23;;;;;;;55.27;25.60;;;;;;;-0.50;96.20;99774.63;5098088;28;20475;-59
2022/12/12 00:23:50;;;;;;;43.77;23.63;;;;;;;-0.35;96.26;99772.09;5089414;28;20889;-59
2022/12/12 00:26:22;;;;;;;63.47;27.90;;;;;;;-0.33;95.62;99763.22;5098364;28;20471;-60
2022/12/12 00:28:49;;;;;;;51.50;25.20;;;;;;;-0.37;95.67;99764.28;5079204;28;20472;-59
2022/12/12 00:31:16;;;;;;;57.47;26.57;;;;;;;-0.43;95.62;99768.13;5093369;28;20511;-60
2022/12/12 00:33:43;;;;;;;52.97;25.37;;;;;;;-0.42;95.41;99761.94;5094278;28;20484;-59
2022/12/12 00:36:11;;;;;;;46.83;25.10;;;;;;;-0.38;95.26;99765.25;5096029;28;20479;-59
2022/12/12 00:38:37;;;;;;;52.93;25.73;;;;;;;-0.44;95.01;99763.78;5095826;28;20479;-59
2022/12/12 00:41:06;;;;;;;50.83;23.87;;;;;;;-0.47;95.04;99766.59;5093255;28;20575;-60
2022/12/12 00:43:34;;;;;;;45.00;25.50;;;;;;;-0.34;94.92;99772.03;5098603;28;20476;-59
2022/12/12 00:46:01;;;;;;;53.37;26.27;;;;;;;-0.41;94.73;99776.75;5084512;28;20521;-59
2022/12/12 00:48:28;;;;;;;48.47;23.93;;;;;;;-0.44;94.70;99770.81;5093481;28;20445;-59
2022/12/12 00:50:55;;;;;;;53.87;23.60;;;;;;;-0.39;95.11;99769.63;5104304;28;20503;-59
2022/12/12 00:53:22;;;;;;;50.37;22.50;;;;;;;-0.40;94.95;99774.97;5092953;28;20475;-60
2022/12/12 00:55:55;;;;;;;48.00;24.60;;;;;;;-0.45;94.49;99776.97;5100813;28;20479;-60
2022/12/12 00:58:21;;;;;;;56.37;26.70;;;;;;;-0.48;94.43;99771.94;5084157;28;20468;-59
2022/12/12 01:00:49;;;;;;;54.57;24.57;;;;;;;-0.51;94.75;99779.97;5088025;28;20507;-60
2022/12/12 01:03:16;;;;;;;46.07;25.60;;;;;;;-0.52;94.85;99779.13;5100514;28;20510;-59
2022/12/12 01:05:42;;;;;;;51.70;26.10;;;;;;;-0.51;94.65;99785.22;5101488;28;20493;-59
2022/12/12 01:08:09;;;;;;;56.27;25.20;;;;;;;-0.57;94.58;99792.47;5084868;28;20475;-60
2022/12/12 01:10:35;;;;;;;55.07;25.73;;;;;;;-0.63;94.74;99797.19;5093159;28;20492;-60
2022/12/12 01:13:02;;;;;;;54.23;26.20;;;;;;;-0.54;94.50;99799.34;5095150;28;20877;-59
2022/12/12 01:15:29;;;;;;;58.03;25.50;;;;;;;-0.54;94.47;99804.59;5094531;28;20484;-59
2022/12/12 01:17:57;;;;;;;51.50;25.73;;;;;;;-0.52;94.98;99805.38;5095253;28;20459;-60
2022/12/12 01:20:26;;;;;;;59.53;26.85;;;;;;;-0.51;94.48;99807.06;5096611;28;20537;-60
2022/12/12 01:22:53;;;;;;;48.60;24.20;;;;;;;-0.49;93.88;99796.47;5103816;28;20217;-59
2022/12/12 01:25:20;;;;;;;51.47;23.93;;;;;;;-0.51;93.36;99803.59;5103622;28;20447;-60
2022/12/12 01:27:47;;;;;;;50.47;25.60;;;;;;;-0.56;93.44;99809.06;5084160;28;20511;-59
2022/12/12 01:30:15;;;;;;;51.20;24.93;;;;;;;-0.63;93.33;99808.53;5096339;28;20451;-59
2022/12/12 01:32:42;;;;;;;49.87;25.17;;;;;;;-0.63;93.37;99816.41;5100424;28;20457;-60
2022/12/12 01:35:11;;;;;;;52.25;24.00;;;;;;;-0.67;93.42;99803.56;5089441;28;20501;-60
2022/12/12 01:37:39;;;;;;;60.43;27.77;;;;;;;-0.69;93.50;99811.50;5096116;28;20313;-59
2022/12/12 01:40:19;;;;;;;52.33;25.40;;;;;;;-0.79;93.67;99808.50;5101140;28;20475;-60
2022/12/12 01:42:46;;;;;;;53.63;24.43;;;;;;;-0.86;93.85;99815.00;5086846;28;20505;-60
2022/12/12 01:45:58;;;;;;;44.70;24.38;;;;;;;-0.83;93.97;99817.47;5102061;28;20526;-59
2022/12/12 01:48:27;;;;;;;49.53;24.02;;;;;;;-0.83;94.28;99827.13;5043903;28;20290;-59
2022/12/12 01:50:56;;;;;;;54.40;25.13;;;;;;;-0.91;94.41;99821.41;5071350;28;20298;-59
2022/12/12 01:53:23;;;;;;;57.60;25.87;;;;;;;-0.79;94.46;99815.53;5097895;28;20431;-60
2022/12/12 01:55:50;;;;;;;58.10;25.37;;;;;;;-0.77;94.25;99819.75;5082550;28;20504;-60
2022/12/12 01:58:17;;;;;;;59.80;26.30;;;;;;;-0.88;94.37;99818.66;5095904;28;20459;-60
2022/12/12 02:00:44;;;;;;;51.80;26.00;;;;;;;-0.91;94.50;99817.00;5094587;28;20496;-59
2022/12/12 02:03:10;;;;;;;56.57;27.87;;;;;;;-0.97;94.65;99822.59;5102277;28;20447;-60
2022/12/12 02:05:41;;;;;;;51.87;26.47;;;;;;;-1.01;95.10;99823.66;5085918;28;20476;-59
2022/12/12 02:08:11;;;;;;;60.47;27.03;;;;;;;-0.97;95.02;99817.34;5084069;28;20448;-60
2022/12/12 02:10:38;;;;;;;53.70;27.63;;;;;;;-0.97;94.94;99823.44;5082261;28;20563;-59
2022/12/12 02:13:07;;;;;;;54.37;26.67;;;;;;;-0.96;94.89;99827.72;5088479;28;20940;-59
2022/12/12 02:15:41;;;;;;;53.33;26.57;;;;;;;-0.92;94.85;99825.81;5093610;28;20488;-59
2022/12/12 02:18:10;;;;;;;52.47;26.43;;;;;;;-0.94;94.28;99827.66;5086747;28;20530;-59
2022/12/12 02:20:51;;;;;;;54.80;25.23;;;;;;;-0.88;94.23;99823.88;5101918;28;20475;-59
2022/12/12 02:23:42;;;;;;;56.77;26.73;;;;;;;-0.95;94.14;99820.72;5091048;28;20466;-59
2022/12/12 02:26:52;;;;;;;51.80;24.73;;;;;;;-0.96;94.26;99824.25;5089145;28;20498;-59
2022/12/12 02:29:54;;;;;;;56.17;25.70;;;;;;;-1.01;94.16;99821.91;5086765;28;20548;-59
2022/12/12 02:32:26;;;;;;;53.50;27.90;;;;;;;-1.12;94.64;99825.97;5098858;28;20260;-59
2022/12/12 02:34:56;;;;;;;55.03;24.93;;;;;;;-1.03;94.85;99833.38;5089810;28;20202;-59
2022/12/12 02:37:30;;;;;;;56.87;27.70;;;;;;;-1.14;94.90;99829.50;5078263;28;20496;-59
2022/12/12 02:40:01;;;;;;;55.20;27.02;;;;;;;-1.20;94.84;99828.97;5074030;28;20519;-59
2022/12/12 02:42:31;;;;;;;51.83;26.47;;;;;;;-1.20;94.97;99824.59;5067651;28;20250;-60
2022/12/12 02:45:03;;;;;;;59.95;25.95;;;;;;;-1.15;94.93;99829.59;5076342;28;20504;-59
2022/12/12 02:47:33;;;;;;;60.33;28.20;;;;;;;-1.25;95.09;99829.22;5066974;28;20234;-59
2022/12/12 02:50:03;;;;;;;56.55;25.67;;;;;;;-1.17;94.67;99820.94;5076252;28;20210;-59
2022/12/12 02:52:30;;;;;;;54.25;25.30;;;;;;;-1.19;94.53;99828.88;5076740;28;20673;-59
2022/12/12 02:54:57;;;;;;;48.87;25.40;;;;;;;-1.25;94.72;99825.72;5076980;28;20198;-59
2022/12/12 02:57:24;;;;;;;51.00;26.67;;;;;;;-1.26;95.09;99832.75;5068237;28;20560;-59
2022/12/12 02:59:54;;;;;;;54.13;25.10;;;;;;;-1.27;95.09;99823.16;5077326;28;20488;-59
2022/12/12 03:07:45;;;;;;;54.97;27.37;;;;;;;-1.27;95.12;99831.03;5080749;28;20515;-59
2022/12/12 03:08:44;;;;;;;55.70;26.47;;;;;;;-1.23;95.28;99835.22;5069789;28;20209;-59
2022/12/12 03:11:13;;;;;;;60.40;28.48;;;;;;;-1.30;95.28;99833.84;5072192;28;20491;-59
2022/12/12 03:13:45;;;;;;;59.77;29.07;;;;;;;-1.35;95.44;99841.06;5073035;28;20198;-59
2022/12/12 03:16:20;;;;;;;55.50;27.90;;;;;;;-1.32;95.51;99843.53;5080014;28;20468;-59
2022/12/12 03:18:55;;;;;;;58.30;27.00;;;;;;;-1.43;95.67;99837.97;5079410;28;21096;-60
2022/12/12 03:21:25;;;;;;;53.78;27.88;;;;;;;-1.34;95.73;99832.28;5075327;28;20496;-59
2022/12/12 03:23:54;;;;;;;52.70;26.33;;;;;;;-1.31;94.99;99837.38;5077895;28;20203;-60
2022/12/12 03:26:25;;;;;;;51.13;26.43;;;;;;;-1.33;94.72;99831.34;5049395;28;20253;-59
2022/12/12 03:28:55;;;;;;;52.78;27.60;;;;;;;-1.36;94.75;99834.97;5079359;28;20456;-60
2022/12/12 03:31:25;;;;;;;54.23;25.87;;;;;;;-1.44;95.18;99825.78;5072306;28;20227;-59
2022/12/12 03:33:57;;;;;;;51.47;26.63;;;;;;;-1.40;95.26;99836.03;5072568;28;20479;-59
2022/12/12 03:36:26;;;;;;;58.83;26.47;;;;;;;-1.42;95.40;99832.66;5079035;28;20237;-59
2022/12/12 03:38:57;;;;;;;61.00;29.27;;;;;;;-1.49;95.32;99826.03;5095086;28;20475;-60
2022/12/12 03:41:27;;;;;;;56.10;27.20;;;;;;;-1.45;95.55;99827.56;5099676;28;20325;-59
2022/12/12 03:43:59;;;;;;;52.53;28.50;;;;;;;-1.45;95.40;99826.72;5093653;28;20454;-60
2022/12/12 03:46:29;;;;;;;57.30;26.60;;;;;;;-1.50;95.23;99826.09;5100637;28;20245;-59
2022/12/12 03:49:00;;;;;;;45.83;24.55;;;;;;;-1.50;95.31;99823.47;5094301;28;20487;-59
2022/12/12 03:51:28;;;;;;;59.38;26.80;;;;;;;-1.57;95.44;99828.16;5097678;28;20261;-59
2022/12/12 03:53:58;;;;;;;55.87;27.47;;;;;;;-1.53;95.31;99827.94;5098076;28;20208;-60
2022/12/12 03:56:30;;;;;;;50.05;26.52;;;;;;;-1.40;94.57;99828.19;5090567;28;20487;-60
2022/12/12 03:59:01;;;;;;;54.47;28.63;;;;;;;-1.43;94.31;99837.97;5090193;28;20225;-59
2022/12/12 04:01:34;;;;;;;54.53;25.70;;;;;;;-1.54;94.73;99834.09;5097551;28;20496;-59
2022/12/12 04:04:06;;;;;;;49.23;25.60;;;;;;;-1.50;94.71;99840.03;5088217;28;20455;-59
2022/12/12 04:06:35;;;;;;;50.55;25.25;;;;;;;-1.42;94.84;99834.44;5095538;28;20508;-59
2022/12/12 04:14:50;;;;;;;47.17;26.10;;;;;;;-1.56;94.99;99841.19;5083271;28;20620;-60
2022/12/12 04:17:18;;;;;;;46.05;24.92;;;;;;;-1.48;94.64;99837.34;5093244;28;20228;-60
2022/12/12 04:25:29;;;;;;;45.95;25.98;;;;;;;-1.61;95.09;99839.72;5100782;28;20336;-59
2022/12/12 04:27:59;;;;;;;61.17;27.13;;;;;;;-1.58;94.72;99847.41;5094999;28;20694;-59
2022/12/12 04:30:28;;;;;;;54.65;25.38;;;;;;;-1.63;94.86;99841.53;5093820;28;20221;-59
2022/12/12 04:32:59;;;;;;;53.53;27.02;;;;;;;-1.61;94.71;99850.22;5100017;28;20236;-59
2022/12/12 04:35:32;;;;;;;54.20;25.17;;;;;;;-1.57;94.91;99849.13;5090155;28;21375;-59
2022/12/12 04:38:00;;;;;;;48.57;24.90;;;;;;;-1.61;95.04;99850.22;5098065;28;20511;-59
2022/12/12 04:40:29;;;;;;;59.40;26.92;;;;;;;-1.58;95.23;99853.53;5098627;28;21081;-59
2022/12/12 04:42:58;;;;;;;59.55;27.42;;;;;;;-1.54;95.15;99851.59;5096751;28;20217;-59
2022/12/12 04:45:31;;;;;;;51.13;26.23;;;;;;;-1.55;95.02;99852.50;5097060;28;20202;-60
2022/12/12 04:47:59;;;;;;;45.50;24.58;;;;;;;-1.67;95.04;99853.09;5089723;28;20244;-59
2022/12/12 04:50:31;;;;;;;52.45;23.98;;;;;;;-1.58;95.29;99853.53;5088227;28;20272;-61
2022/12/12 04:52:59;;;;;;;52.67;27.35;;;;;;;-1.64;95.34;99853.81;5103048;28;20217;-60
2022/12/12 04:55:29;;;;;;;56.90;25.63;;;;;;;-1.60;95.38;99860.59;5103750;28;22320;-59
2022/12/12 04:57:56;;;;;;;54.67;25.73;;;;;;;-1.55;95.24;99858.59;5095459;28;20229;-59
2022/12/12 05:00:24;;;;;;;55.40;25.60;;;;;;;-1.65;94.96;99861.75;5092204;28;20250;-59
2022/12/12 05:02:57;;;;;;;49.03;27.93;;;;;;;-1.63;94.79;99862.50;5096038;28;20648;-66
2022/12/12 05:05:27;;;;;;;52.47;26.63;;;;;;;-1.58;95.07;99863.16;5094606;28;20944;-65
2022/12/12 05:07:56;;;;;;;51.30;25.00;;;;;;;-1.67;95.09;99861.81;5086117;28;20496;-66
2022/12/12 05:10:23;;;;;;;54.93;26.03;;;;;;;-1.53;94.58;99867.28;5092279;28;20459;-65
2022/12/12 05:12:51;;;;;;;52.13;26.83;;;;;;;-1.60;94.65;99870.22;5082873;28;20448;-66
2022/12/12 05:15:20;;;;;;;50.85;26.83;;;;;;;-1.58;94.86;99874.50;5062150;28;20202;-66
2022/12/12 05:17:48;;;;;;;53.80;26.60;;;;;;;-1.59;94.61;99867.53;5095107;28;20304;-66
2022/12/12 05:20:16;;;;;;;55.65;26.83;;;;;;;-1.67;94.87;99871.44;5102111;28;20205;-65
2022/12/12 05:22:42;;;;;;;53.35;27.48;;;;;;;-1.68;95.19;99860.13;5103079;28;20213;-64
2022/12/12 05:25:10;;;;;;;52.53;27.85;;;;;;;-1.67;94.95;99860.97;5080944;28;20732;-66
2022/12/12 05:27:37;;;;;;;58.08;27.35;;;;;;;-1.67;95.07;99877.53;5081832;28;20198;-66
2022/12/12 05:30:05;;;;;;;49.25;24.40;;;;;;;-1.80;95.08;99879.06;5081218;28;20376;-65
2022/12/12 05:32:32;;;;;;;53.65;27.25;;;;;;;-1.76;95.26;99873.56;5079508;28;20687;-66
2022/12/12 05:34:58;;;;;;;51.47;27.60;;;;;;;-1.74;95.14;99874.34;5093983;28;20256;-65
2022/12/12 05:37:25;;;;;;;54.17;27.63;;;;;;;-1.81;95.11;99875.56;5079974;28;20496;-66
2022/12/12 05:39:52;;;;;;;47.65;27.38;;;;;;;-1.74;94.68;99871.72;5087492;28;20272;-65
2022/12/12 05:42:20;;;;;;;50.28;27.02;;;;;;;-1.98;94.84;99873.75;5090028;28;20221;-65
2022/12/12 05:44:46;;;;;;;47.70;24.23;;;;;;;-1.93;95.54;99877.00;5074926;28;20413;-66
2022/12/12 05:47:13;;;;;;;57.45;27.33;;;;;;;-1.85;95.35;99879.25;5085082;28;20237;-65
2022/12/12 05:49:40;;;;;;;47.10;25.23;;;;;;;-1.84;95.45;99878.34;5084610;28;20233;-64
2022/12/12 05:52:07;;;;;;;55.30;27.07;;;;;;;-1.89;95.61;99888.19;5087591;28;20257;-65
2022/12/12 05:54:33;;;;;;;47.70;25.20;;;;;;;-1.82;95.31;99883.50;5081913;28;20510;-66
2022/12/12 05:57:00;;;;;;;47.67;26.60;;;;;;;-1.63;94.70;99879.09;5095641;28;20232;-66
2022/12/12 05:59:29;;;;;;;54.53;26.23;;;;;;;-1.76;93.80;99877.97;5082026;28;20518;-65
2022/12/12 06:01:56;;;;;;;54.38;26.50;;;;;;;-1.96;94.55;99884.13;5093505;28;20257;-65
2022/12/12 06:04:23;;;;;;;48.20;25.83;;;;;;;-1.90;94.99;99876.84;5096590;28;20874;-66
2022/12/12 06:06:49;;;;;;;48.08;25.63;;;;;;;-1.88;95.24;99887.25;5101467;28;20260;-65
2022/12/12 06:09:16;;;;;;;50.92;25.65;;;;;;;-1.91;95.01;99887.38;5082415;28;20274;-65
2022/12/12 06:11:43;;;;;;;48.60;26.70;;;;;;;-1.93;95.27;99884.88;5091323;28;20222;-67
2022/12/12 06:14:10;;;;;;;53.75;24.60;;;;;;;-1.99;95.63;99887.75;5094284;28;20704;-67
2022/12/12 06:16:38;;;;;;;51.28;26.80;;;;;;;-1.98;95.18;99880.72;5079298;28;20230;-66
2022/12/12 06:19:05;;;;;;;54.78;27.10;;;;;;;-2.08;95.18;99893.41;5085081;28;20293;-67
2022/12/12 06:21:31;;;;;;;58.07;27.57;;;;;;;-2.05;95.41;99897.66;5082291;28;20268;-67
2022/12/12 06:23:58;;;;;;;55.55;27.52;;;;;;;-2.01;95.47;99886.97;5097040;28;20468;-67
2022/12/12 06:26:25;;;;;;;60.95;28.08;;;;;;;-2.05;95.46;99892.41;5089350;28;20247;-67
2022/12/12 06:28:51;;;;;;;54.37;25.47;;;;;;;-2.07;95.31;99889.84;5101350;28;20293;-66
2022/12/12 06:31:18;;;;;;;53.30;25.40;;;;;;;-2.10;95.46;99887.38;5083445;28;20488;-66
2022/12/12 06:33:46;;;;;;;50.55;27.55;;;;;;;-2.09;95.54;99891.69;5086753;28;20206;-66
2022/12/12 06:36:15;;;;;;;47.10;24.25;;;;;;;-2.13;95.85;99885.75;5080667;28;20260;-66
2022/12/12 06:38:42;;;;;;;50.60;25.77;;;;;;;-2.07;95.85;99895.09;5098889;28;20346;-66
2022/12/12 06:41:10;;;;;;;53.92;30.35;;;;;;;-2.01;95.94;99894.84;5085663;28;20495;-67
2022/12/12 06:43:36;;;;;;;50.45;26.05;;;;;;;-2.07;95.98;99887.25;5090235;28;20270;-67
2022/12/12 06:46:04;;;;;;;53.33;27.83;;;;;;;-2.06;95.78;99890.72;5079858;28;20721;-67
2022/12/12 06:48:32;;;;;;;52.75;25.85;;;;;;;-2.15;96.13;99895.44;5082499;28;20237;-67
2022/12/12 06:51:05;;;;;;;49.53;26.27;;;;;;;-2.06;95.96;99895.97;5088787;28;20290;-66
2022/12/12 06:53:32;;;;;;;57.65;27.08;;;;;;;-2.15;95.63;99897.22;5081043;28;20225;-67
2022/12/12 06:55:58;;;;;;;47.15;25.25;;;;;;;-2.17;95.77;99892.06;5091111;28;20316;-66
2022/12/12 06:58:25;;;;;;;50.15;25.42;;;;;;;-2.19;95.94;99909.59;5091458;28;20237;-67
2022/12/12 07:00:52;;;;;;;50.20;26.77;;;;;;;-2.18;96.23;99907.84;5090608;28;20257;-65
2022/12/12 07:03:19;;;;;;;54.22;27.50;;;;;;;-2.14;95.98;99912.00;5085593;28;20217;-67
2022/12/12 07:05:46;;;;;;;47.08;25.88;;;;;;;-2.25;95.57;99909.88;5084806;28;20295;-65
2022/12/12 07:08:14;;;;;;;45.25;25.08;;;;;;;-2.29;95.89;99909.16;5085518;28;20216;-67
2022/12/12 07:10:40;;;;;;;47.10;24.27;;;;;;;-2.19;95.62;99913.97;5087863;28;20287;-66
2022/12/12 07:13:08;;;;;;;45.72;26.15;;;;;;;-2.32;95.33;99913.69;5087373;28;20221;-67
2022/12/12 07:15:34;;;;;;;50.37;25.13;;;;;;;-2.32;95.48;99914.53;5087867;28;20842;-65
2022/12/12 07:18:01;;;;;;;55.20;27.70;;;;;;;-2.38;95.52;99909.53;5093446;28;20483;-65
2022/12/12 07:20:27;;;;;;;46.80;24.98;;;;;;;-2.32;95.73;99914.53;5098323;28;20233;-66
2022/12/12 07:22:54;;;;;;;50.08;26.25;;;;;;;-2.32;95.47;99906.66;5094710;28;20220;-67
2022/12/12 07:25:22;;;;;;;43.72;24.58;;;;;;;-2.23;95.61;99915.03;5093131;28;20309;-67
2022/12/12 07:27:49;;;;;;;46.05;25.25;;;;;;;-2.34;95.55;99905.88;5063392;28;20235;-67
2022/12/12 07:30:15;;;;;;;50.55;25.70;;;;;;;-2.08;95.92;99909.97;5076196;28;20245;-65
2022/12/12 07:32:42;;;;;;;45.58;23.98;;;;;;;-2.15;95.74;99910.31;5082084;28;20210;-63
2022/12/12 07:35:09;;;;;;;43.97;25.10;;;;;;;-2.06;95.62;99915.16;5076466;28;20229;-65
2022/12/12 07:37:35;;;;;;;48.17;24.30;;;;;;;-1.95;94.88;99919.88;5083383;28;20233;-64
2022/12/12 07:40:02;;;;;;;62.78;29.05;;;;;;;-1.88;96.01;99921.31;5091261;28;20206;-64
2022/12/12 07:42:30;;;;;;;56.53;27.13;;;;;;;-1.79;95.75;99934.00;5090486;28;20222;-65
2022/12/12 07:44:57;;;;;;;53.05;26.02;;;;;;;-1.56;94.33;99938.19;5073492;28;20236;-66
2022/12/12 07:47:23;;;;;;;51.17;25.65;;;;;;;-2.09;93.40;99942.31;5078906;28;20261;-65
2022/12/12 07:49:50;;;;;;;55.03;25.75;;;;;;;-2.08;94.10;99938.78;5073162;28;20276;-65
2022/12/12 07:52:17;;;;;;;53.75;25.50;;;;;;;-2.00;93.36;99925.31;5074958;28;20288;-65
2022/12/12 07:54:43;;;;;;;51.22;26.05;;;;;;;-1.99;93.17;99932.28;5079194;28;20816;-66
2022/12/12 07:57:10;;;;;;;51.47;26.63;;;;;;;-2.04;92.37;99942.13;5078347;28;20262;-65
2022/12/12 07:59:38;;;;;;;50.05;26.50;;;;;;;-2.01;92.42;99947.22;5079206;28;20210;-66
2022/12/12 08:02:05;;;;;;;54.22;25.25;;;;;;;-2.05;92.94;99952.66;5078627;28;20241;-66
2022/12/12 08:04:31;;;;;;;55.55;27.42;;;;;;;-1.82;92.09;99934.16;5078919;28;20190;-66
2022/12/12 08:06:58;;;;;;;53.08;28.00;;;;;;;-1.88;91.76;99938.81;5072933;28;20793;-65
2022/12/12 08:09:25;;;;;;;57.58;27.98;;;;;;;-1.91;91.36;99935.41;5081000;28;20213;-66
2022/12/12 08:11:55;;;;;;;56.70;32.00;;;;;;;-1.90;91.33;99936.25;5082313;28;20253;-65
2022/12/12 08:14:22;;;;;;;54.83;24.43;;;;;;;-1.99;91.51;99942.75;5082052;28;20456;-66
2022/12/12 08:16:50;;;;;;;54.25;29.02;;;;;;;-1.75;90.98;99943.44;5079597;28;20475;-66
2022/12/12 08:19:17;;;;;;;46.30;24.97;;;;;;;-2.00;90.07;99948.06;5095143;28;20701;-66
2022/12/12 08:21:44;;;;;;;47.63;25.83;;;;;;;-2.10;91.01;99950.22;5086639;28;20646;-66
2022/12/12 08:24:12;;;;;;;42.80;24.27;;;;;;;-2.15;91.22;99947.00;5078344;28;20228;-66
2022/12/12 08:26:38;;;;;;;57.22;25.88;;;;;;;-2.15;91.67;99950.44;5079565;28;20500;-65
2022/12/12 08:29:06;;;;;;;47.92;26.60;;;;;;;-2.03;91.71;99950.81;5078860;28;20229;-66
2022/12/12 08:31:33;;;;;;;45.30;23.88;;;;;;;-2.04;91.33;99943.88;5078649;28;20265;-66
2022/12/12 08:34:02;;;;;;;44.05;24.20;;;;;;;-2.03;91.11;99950.81;5092161;28;20266;-65
2022/12/12 08:36:30;;;;;;;48.45;23.30;;;;;;;-2.03;90.99;99954.31;5058762;28;20268;-65
2022/12/12 08:38:57;;;;;;;49.90;26.70;;;;;;;-1.87;90.89;99961.44;5051854;28;20266;-67
2022/12/12 08:41:25;;;;;;;46.80;25.60;;;;;;;-1.75;90.33;99951.28;5069695;28;20284;-66
2022/12/12 08:43:51;;;;;;;53.27;24.10;;;;;;;-1.79;90.23;99948.88;5059403;28;20228;-66
2022/12/12 08:46:19;;;;;;;46.78;22.92;;;;;;;-2.04;89.89;99944.72;5056208;28;20472;-65
2022/12/12 08:48:46;;;;;;;46.45;25.20;;;;;;;-2.01;89.93;99954.25;5058675;28;20315;-65
2022/12/12 08:51:14;;;;;;;41.17;22.00;;;;;;;-2.09;90.25;99951.94;5057461;28;20223;-66
2022/12/12 08:53:43;;;;;;;40.20;22.80;;;;;;;-1.81;89.99;99961.19;5060723;28;20206;-66
2022/12/12 08:56:10;;;;;;;44.35;24.45;;;;;;;-1.93;89.86;99952.97;5059190;28;20584;-66
2022/12/12 08:58:36;;;;;;;34.25;20.27;;;;;;;-1.60;88.62;99954.97;5058077;28;20528;-66
2022/12/12 09:01:03;;;;;;;38.78;21.50;;;;;;;-1.68;87.83;99961.47;5057698;28;20289;-65
2022/12/12 09:03:30;;;;;;;42.90;21.33;;;;;;;-1.59;87.87;99953.22;5057898;28;20258;-66
2022/12/12 09:05:57;;;;;;;40.53;22.55;;;;;;;-1.55;87.55;99962.63;5063133;28;21094;-66
2022/12/12 09:08:25;;;;;;;39.03;20.17;;;;;;;-1.36;86.69;99963.47;5081658;28;20205;-67
2022/12/12 09:10:52;;;;;;;36.88;20.30;;;;;;;-1.39;86.20;99968.00;5083034;28;20525;-66
2022/12/12 09:13:19;;;;;;;43.40;21.67;;;;;;;-1.07;85.31;99970.88;5082095;28;20205;-67
2022/12/12 09:15:50;;;;;;;38.83;21.17;;;;;;;-1.01;84.81;99971.44;5082471;28;20230;-67
2022/12/12 09:18:17;;;;;;;37.15;20.05;;;;;;;-0.90;84.10;99975.28;5082234;28;20452;-66
2022/12/12 09:20:48;;;;;;;43.37;22.50;;;;;;;-1.09;84.39;99975.34;5079776;28;20233;-66
2022/12/12 09:23:15;;;;;;;38.83;20.90;;;;;;;-0.97;84.31;99982.66;5079745;28;20640;-65
2022/12/12 09:25:43;;;;;;;35.73;19.87;;;;;;;-0.78;83.22;99978.19;5060838;28;20508;-66
2022/12/12 09:28:10;;;;;;;39.17;21.33;;;;;;;-1.03;83.76;99973.28;5060987;28;20899;-66
2022/12/12 09:30:37;;;;;;;33.73;19.63;;;;;;;-0.89;83.84;99972.59;5082263;28;20282;-66
2022/12/12 09:33:05;;;;;;;37.37;20.73;;;;;;;-0.98;83.65;99975.69;5082017;28;20492;-66
2022/12/12 09:35:32;;;;;;;35.60;19.07;;;;;;;-0.97;83.57;99974.78;5081419;28;20476;-66
2022/12/12 09:37:59;;;;;;;41.87;20.70;;;;;;;-1.07;83.38;99982.22;5077621;28;20913;-66
2022/12/12 09:40:29;;;;;;;39.13;19.87;;;;;;;-1.16;83.85;99987.91;5091708;28;20481;-66
2022/12/12 09:42:58;;;;;;;40.10;20.60;;;;;;;-1.02;83.86;99988.09;5101315;28;20493;-66
2022/12/12 09:45:25;;;;;;;32.63;18.40;;;;;;;-0.80;83.95;99980.06;5083159;28;20491;-66
2022/12/12 09:47:54;;;;;;;42.07;22.37;;;;;;;-0.88;83.35;99976.09;5096579;28;20483;-67
2022/12/12 09:50:25;;;;;;;41.23;19.57;;;;;;;-0.77;83.11;99979.88;5093129;28;20475;-65
2022/12/12 09:52:52;;;;;;;38.43;20.50;;;;;;;-0.67;82.57;99982.06;5082764;28;20489;-65
2022/12/12 09:55:37;;;;;;;39.50;19.83;;;;;;;-0.76;81.55;99981.59;5094176;28;20488;-65
2022/12/12 09:58:09;;;;;;;31.47;19.30;;;;;;;-0.68;81.55;99985.59;5100251;28;20470;-66
2022/12/12 10:00:38;;;;;;;37.43;19.47;;;;;;;-0.70;81.80;99977.81;5097259;28;20862;-65
2022/12/12 10:03:15;;;;;;;36.17;19.90;;;;;;;-0.42;80.94;99981.69;5101632;28;20515;-67
2022/12/12 10:05:46;;;;;;;37.70;19.57;;;;;;;-0.64;81.32;99982.75;5093165;28;20451;-66
2022/12/12 10:08:19;;;;;;;36.20;19.40;;;;;;;-0.53;81.52;99984.00;5092912;28;20472;-66
2022/12/12 10:10:48;;;;;;;35.33;18.57;;;;;;;-0.43;81.23;99986.09;5081092;28;20487;-66
2022/12/12 10:13:19;;;;;;;31.93;18.07;;;;;;;-0.49;80.37;99985.53;5080527;28;20439;-67
2022/12/12 10:15:47;;;;;;;35.77;19.87;;;;;;;-0.30;81.15;99980.22;5080701;28;20468;-65
2022/12/12 10:18:16;;;;;;;35.10;18.60;;;;;;;-0.26;80.52;99977.38;5080271;28;20455;-65
2022/12/12 10:20:47;;;;;;;32.77;18.10;;;;;;;-0.04;80.04;99984.13;5079392;28;20484;-67
2022/12/12 10:23:18;;;;;;;31.10;17.57;;;;;;;-0.30;79.17;99985.47;5081825;28;20496;-67
2022/12/12 10:25:49;;;;;;;36.30;20.07;;;;;;;-0.38;79.43;99989.34;5069636;28;20494;-68
2022/12/12 10:28:19;;;;;;;29.53;19.00;;;;;;;-0.26;80.27;99981.75;5079348;28;20433;-66
2022/12/12 10:30:55;;;;;;;30.83;17.80;;;;;;;0.00;79.21;99983.06;5060828;28;20564;-65
2022/12/12 10:33:28;;;;;;;28.00;17.80;;;;;;;0.05;78.09;99980.16;5080326;28;20456;-67
2022/12/12 10:36:01;;;;;;;32.10;17.10;;;;;;;-0.07;77.75;99977.25;5066581;28;20465;-67
2022/12/12 10:38:38;;;;;;;34.87;16.90;;;;;;;0.48;76.91;99973.47;5079005;28;20507;-67
2022/12/12 10:41:10;;;;;;;30.80;18.30;;;;;;;0.48;75.85;99968.19;5080840;28;20529;-68
2022/12/12 10:43:45;;;;;;;29.53;18.40;;;;;;;0.61;75.41;99971.03;5080514;28;20476;-67
2022/12/12 10:46:24;;;;;;;30.63;17.70;;;;;;;0.65;75.76;99980.44;5081224;28;20500;-68
2022/12/12 10:48:51;;;;;;;34.00;18.50;;;;;;;0.47;75.15;99971.78;5079316;28;20461;-66
2022/12/12 10:51:21;;;;;;;27.70;18.00;;;;;;;0.57;75.56;99969.47;5085534;28;20471;-67
2022/12/12 10:53:48;;;;;;;36.73;19.17;;;;;;;0.42;75.27;99976.44;5081154;28;20476;-68
2022/12/12 10:56:20;;;;;;;30.93;17.47;;;;;;;0.41;75.65;99977.38;5075438;28;20821;-67
2022/12/12 10:58:52;;;;;;;39.47;19.20;;;;;;;0.37;75.03;99967.94;5080818;28;20445;-67
2022/12/12 11:01:20;;;;;;;26.60;16.50;;;;;;;0.52;75.22;99961.00;5080266;28;20476;-66
2022/12/12 11:03:48;;;;;;;26.80;17.10;;;;;;;0.72;75.28;99959.91;5074711;28;20535;-64
2022/12/12 11:06:20;;;;;;;38.90;18.37;;;;;;;0.68;74.59;99956.59;5080209;28;20501;-67
2022/12/12 11:08:54;;;;;;;33.13;18.43;;;;;;;1.03;73.33;99955.56;5079414;28;20441;-67
2022/12/12 11:11:22;;;;;;;29.20;16.83;;;;;;;0.74;74.14;99955.41;5079410;28;20796;-68
2022/12/12 11:13:53;;;;;;;29.00;18.80;;;;;;;0.99;74.13;99954.91;5079550;28;20533;-68
2022/12/12 11:16:22;;;;;;;32.13;18.93;;;;;;;1.09;74.27;99948.19;5080102;28;20494;-67
2022/12/12 11:19:03;;;;;;;31.27;17.67;;;;;;;0.87;74.29;99948.53;5071021;28;20456;-65
2022/12/12 11:21:32;;;;;;;30.70;17.37;;;;;;;0.89;74.03;99948.44;5079576;28;20495;-68
2022/12/12 11:23:59;;;;;;;24.20;15.03;;;;;;;0.84;74.42;99951.34;5070613;28;20503;-67
2022/12/12 11:26:27;;;;;;;30.70;16.80;;;;;;;0.73;74.61;99959.81;5079367;28;20484;-67
2022/12/12 11:28:58;;;;;;;32.17;18.30;;;;;;;0.84;74.38;99948.69;5075947;28;21093;-66
2022/12/12 11:31:27;;;;;;;29.23;17.00;;;;;;;0.74;74.36;99950.97;5079880;28;20478;-67
2022/12/12 11:33:55;;;;;;;34.57;17.60;;;;;;;0.69;75.08;99944.28;5079391;28;20455;-67
2022/12/12 11:36:28;;;;;;;34.83;18.33;;;;;;;0.56;75.21;99944.97;5080375;28;20500;-67
2022/12/12 11:38:56;;;;;;;27.03;15.47;;;;;;;0.71;77.83;99947.69;5074855;28;20507;-67
2022/12/12 11:41:23;;;;;;;30.73;17.80;;;;;;;0.81;76.31;99943.59;5078683;28;20476;-67